sensor_id;sensor_type;location;lat;lon;timestamp;pressure;altitude;pressure_sealevel;temperature;humidity
84387;BME280;74580;47.078;15.446;2023-12-20T00:01:31;97304.03;;;22.36;31.17
84387;BME280;74580;47.078;15.446;2023-12-20T00:03:57;97298.59;;;22.36;31.37
84387;BME280;74580;47.078;15.446;2023-12-20T00:06:22;97294.72;;;22.37;31.09
84387;BME280;74580;47.078;15.446;2023-12-20T00:08:47;97290.41;;;22.36;31.12
84387;BME280;74580;47.078;15.446;2023-12-20T00:11:13;97284.97;;;22.36;31.33
84387;BME280;74580;47.078;15.446;2023-12-20T00:13:38;97286.13;;;22.35;31.23
84387;BME280;74580;47.078;15.446;2023-12-20T00:16:03;97283.41;;;22.35;31.16
84387;BME280;74580;47.078;15.446;2023-12-20T00:18:29;97270.56;;;22.35;31.31
84387;BME280;74580;47.078;15.446;2023-12-20T00:20:54;97266.72;;;22.36;31.27
84387;BME280;74580;47.078;15.446;2023-12-20T00:23:20;97271.72;;;22.34;31.39
84387;BME280;74580;47.078;15.446;2023-12-20T00:25:45;97268.25;;;22.34;31.29
84387;BME280;74580;47.078;15.446;2023-12-20T00:28:10;97258.91;;;22.35;31.20
84387;BME280;74580;47.078;15.446;2023-12-20T00:30:36;97258.13;;;22.34;31.04
84387;BME280;74580;47.078;15.446;2023-12-20T00:33:01;97248.03;;;22.35;31.16
84387;BME280;74580;47.078;15.446;2023-12-20T00:35:27;97246.47;;;22.34;31.05
84387;BME280;74580;47.078;15.446;2023-12-20T00:37:53;97249.19;;;22.34;31.02
84387;BME280;74580;47.078;15.446;2023-12-20T00:40:18;97249.97;;;22.34;31.33
84387;BME280;74580;47.078;15.446;2023-12-20T00:42:43;97247.22;;;22.34;31.27
84387;BME280;74580;47.078;15.446;2023-12-20T00:45:09;97245.31;;;22.35;31.28
84387;BME280;74580;47.078;15.446;2023-12-20T00:47:34;97238.31;;;22.34;31.26
84387;BME280;74580;47.078;15.446;2023-12-20T00:49:59;97229.75;;;22.35;31.30
84387;BME280;74580;47.078;15.446;2023-12-20T00:52:25;97232.84;;;22.34;31.22
84387;BME280;74580;47.078;15.446;2023-12-20T00:54:50;97229.75;;;22.35;31.28
84387;BME280;74580;47.078;15.446;2023-12-20T00:57:16;97223.53;;;22.35;30.93
84387;BME280;74580;47.078;15.446;2023-12-20T00:59:41;97214.56;;;22.34;31.05
84387;BME280;74580;47.078;15.446;2023-12-20T01:02:06;97211.84;;;22.34;31.33
84387;BME280;74580;47.078;15.446;2023-12-20T01:04:32;97211.09;;;22.34;31.22
84387;BME280;74580;47.078;15.446;2023-12-20T01:06:57;97214.56;;;22.34;31.10
84387;BME280;74580;47.078;15.446;2023-12-20T01:09:23;97218.47;;;22.33;30.96
84387;BME280;74580;47.078;15.446;2023-12-20T01:11:51;97220.03;;;22.34;31.20
84387;BME280;74580;47.078;15.446;2023-12-20T01:14:17;97217.28;;;22.34;31.58
84387;BME280;74580;47.078;15.446;2023-12-20T01:16:42;97216.53;;;22.34;31.23
84387;BME280;74580;47.078;15.446;2023-12-20T01:19:07;97222.75;;;22.34;31.32
84387;BME280;74580;47.078;15.446;2023-12-20T01:21:33;97219.25;;;22.34;31.07
84387;BME280;74580;47.078;15.446;2023-12-20T01:23:58;97211.84;;;22.34;31.16
84387;BME280;74580;47.078;15.446;2023-12-20T01:26:23;97211.09;;;22.34;31.06
84387;BME280;74580;47.078;15.446;2023-12-20T01:28:49;97215.72;;;22.33;30.95
84387;BME280;74580;47.078;15.446;2023-12-20T01:31:14;97209.94;;;22.35;31.02
84387;BME280;74580;47.078;15.446;2023-12-20T01:33:39;97212.66;;;22.35;31.09
84387;BME280;74580;47.078;15.446;2023-12-20T01:36:05;97208.38;;;22.34;31.33
84387;BME280;74580;47.078;15.446;2023-12-20T01:38:30;97209.13;;;22.34;31.25
84387;BME280;74580;47.078;15.446;2023-12-20T01:40:55;97211.84;;;22.34;31.33
84387;BME280;74580;47.078;15.446;2023-12-20T01:43:21;97205.66;;;22.34;31.36
84387;BME280;74580;47.078;15.446;2023-12-20T01:45:47;97198.59;;;22.33;31.13
84387;BME280;74580;47.078;15.446;2023-12-20T01:48:12;97198.59;;;22.33;31.01
84387;BME280;74580;47.078;15.446;2023-12-20T01:50:40;97179.56;;;22.33;31.24
84387;BME280;74580;47.078;15.446;2023-12-20T01:53:07;97192.03;;;22.34;31.02
84387;BME280;74580;47.078;15.446;2023-12-20T01:55:35;97183.88;;;22.34;31.01
84387;BME280;74580;47.078;15.446;2023-12-20T01:58:01;97175.69;;;22.34;31.27
84387;BME280;74580;47.078;15.446;2023-12-20T02:00:29;97170.63;;;22.32;31.22
84387;BME280;74580;47.078;15.446;2023-12-20T02:02:55;97171.03;;;22.34;31.10
84387;BME280;74580;47.078;15.446;2023-12-20T02:05:21;97164.81;;;22.34;30.92
84387;BME280;74580;47.078;15.446;2023-12-20T02:07:47;97158.59;;;22.33;31.20
84387;BME280;74580;47.078;15.446;2023-12-20T02:10:13;97145.78;;;22.34;31.33
84387;BME280;74580;47.078;15.446;2023-12-20T02:12:40;97145.78;;;22.34;31.05
84387;BME280;74580;47.078;15.446;2023-12-20T02:15:06;97146.91;;;22.33;31.06
84387;BME280;74580;47.078;15.446;2023-12-20T02:17:31;97140.69;;;22.32;31.23
84387;BME280;74580;47.078;15.446;2023-12-20T02:19:57;97141.44;;;22.33;31.06
84387;BME280;74580;47.078;15.446;2023-12-20T02:22:22;97137.97;;;22.32;31.08
84387;BME280;74580;47.078;15.446;2023-12-20T02:24:47;97139.53;;;22.33;31.06
84387;BME280;74580;47.078;15.446;2023-12-20T02:27:14;97124.34;;;22.32;31.16
84387;BME280;74580;47.078;15.446;2023-12-20T02:29:40;97121.63;;;22.32;31.22
84387;BME280;74580;47.078;15.446;2023-12-20T02:32:06;97111.50;;;22.33;31.06
84387;BME280;74580;47.078;15.446;2023-12-20T02:34:31;97110.38;;;22.34;31.01
84387;BME280;74580;47.078;15.446;2023-12-20T02:36:56;97107.66;;;22.34;31.06
84387;BME280;74580;47.078;15.446;2023-12-20T02:39:22;97101.78;;;22.32;31.19
84387;BME280;74580;47.078;15.446;2023-12-20T02:41:48;97099.06;;;22.32;31.24
84387;BME280;74580;47.078;15.446;2023-12-20T02:44:13;97091.69;;;22.32;31.03
84387;BME280;74580;47.078;15.446;2023-12-20T02:46:39;97081.59;;;22.33;31.04
84387;BME280;74580;47.078;15.446;2023-12-20T02:49:05;97085.47;;;22.32;31.17
84387;BME280;74580;47.078;15.446;2023-12-20T02:51:30;97085.09;;;22.33;31.06
84387;BME280;74580;47.078;15.446;2023-12-20T02:53:56;97068.34;;;22.31;31.05
84387;BME280;74580;47.078;15.446;2023-12-20T02:56:21;97074.56;;;22.32;30.98
84387;BME280;74580;47.078;15.446;2023-12-20T02:58:46;97069.94;;;22.32;31.03
84387;BME280;74580;47.078;15.446;2023-12-20T03:01:12;97063.69;;;22.32;31.19
84387;BME280;74580;47.078;15.446;2023-12-20T03:03:37;97064.50;;;22.32;31.30
84387;BME280;74580;47.078;15.446;2023-12-20T03:06:03;97056.69;;;22.31;31.38
84387;BME280;74580;47.078;15.446;2023-12-20T03:08:28;97050.88;;;22.32;30.93
84387;BME280;74580;47.078;15.446;2023-12-20T03:10:53;97046.19;;;22.33;31.23
84387;BME280;74580;47.078;15.446;2023-12-20T03:13:19;97039.19;;;22.32;31.18
84387;BME280;74580;47.078;15.446;2023-12-20T03:15:45;97038.03;;;22.33;31.05
84387;BME280;74580;47.078;15.446;2023-12-20T03:18:11;97038.41;;;22.31;31.09
84387;BME280;74580;47.078;15.446;2023-12-20T03:20:36;97036.47;;;22.32;31.15
84387;BME280;74580;47.078;15.446;2023-12-20T03:23:01;97032.97;;;22.31;31.09
84387;BME280;74580;47.078;15.446;2023-12-20T03:25:27;97036.47;;;22.32;31.22
84387;BME280;74580;47.078;15.446;2023-12-20T03:27:52;97029.09;;;22.32;31.12
84387;BME280;74580;47.078;15.446;2023-12-20T03:30:18;97025.59;;;22.32;31.08
84387;BME280;74580;47.078;15.446;2023-12-20T03:32:44;97022.88;;;22.32;31.00
84387;BME280;74580;47.078;15.446;2023-12-20T03:35:09;97026.38;;;22.32;31.21
84387;BME280;74580;47.078;15.446;2023-12-20T03:37:35;97026.38;;;22.32;31.23
84387;BME280;74580;47.078;15.446;2023-12-20T03:40:01;97027.16;;;22.33;31.13
84387;BME280;74580;47.078;15.446;2023-12-20T03:42:27;97031.03;;;22.32;30.93
84387;BME280;74580;47.078;15.446;2023-12-20T03:44:52;97022.06;;;22.31;31.15
84387;BME280;74580;47.078;15.446;2023-12-20T03:47:18;97021.31;;;22.31;31.27
84387;BME280;74580;47.078;15.446;2023-12-20T03:49:43;97016.63;;;22.31;30.87
84387;BME280;74580;47.078;15.446;2023-12-20T03:52:08;97013.16;;;22.31;30.97
84387;BME280;74580;47.078;15.446;2023-12-20T03:54:35;97017.78;;;22.30;31.26
84387;BME280;74580;47.078;15.446;2023-12-20T03:57:00;97017.78;;;22.30;31.27
84387;BME280;74580;47.078;15.446;2023-12-20T03:59:26;97019.75;;;22.30;30.86
84387;BME280;74580;47.078;15.446;2023-12-20T04:01:51;97024.78;;;22.31;30.94
84387;BME280;74580;47.078;15.446;2023-12-20T04:04:16;97029.47;;;22.31;31.02
84387;BME280;74580;47.078;15.446;2023-12-20T04:06:42;97021.31;;;22.31;30.97
84387;BME280;74580;47.078;15.446;2023-12-20T04:09:07;97025.19;;;22.30;30.99
84387;BME280;74580;47.078;15.446;2023-12-20T04:11:34;97023.25;;;22.30;31.25
84387;BME280;74580;47.078;15.446;2023-12-20T04:14:00;97017.03;;;22.30;31.09
84387;BME280;74580;47.078;15.446;2023-12-20T04:16:26;97024.03;;;22.31;31.14
84387;BME280;74580;47.078;15.446;2023-12-20T04:18:51;97019.75;;;22.30;30.92
84387;BME280;74580;47.078;15.446;2023-12-20T04:21:17;97023.25;;;22.30;31.21
84387;BME280;74580;47.078;15.446;2023-12-20T04:23:43;97015.88;;;22.31;31.19
84387;BME280;74580;47.078;15.446;2023-12-20T04:26:09;97011.59;;;22.30;31.26
84387;BME280;74580;47.078;15.446;2023-12-20T04:28:34;97013.50;;;22.29;31.21
84387;BME280;74580;47.078;15.446;2023-12-20T04:30:59;97006.16;;;22.30;31.00
84387;BME280;74580;47.078;15.446;2023-12-20T04:33:24;97010.44;;;22.31;30.93
84387;BME280;74580;47.078;15.446;2023-12-20T04:35:50;97017.03;;;22.30;30.98
84387;BME280;74580;47.078;15.446;2023-12-20T04:38:15;97013.50;;;22.29;30.88
84387;BME280;74580;47.078;15.446;2023-12-20T04:40:41;97014.31;;;22.30;31.05
84387;BME280;74580;47.078;15.446;2023-12-20T04:43:07;97006.53;;;22.32;31.16
84387;BME280;74580;47.078;15.446;2023-12-20T04:45:33;97004.97;;;22.31;31.00
84387;BME280;74580;47.078;15.446;2023-12-20T04:47:58;97001.47;;;22.30;30.99
84387;BME280;74580;47.078;15.446;2023-12-20T04:50:23;97004.19;;;22.30;30.98
84387;BME280;74580;47.078;15.446;2023-12-20T04:52:49;97002.25;;;22.31;30.87
84387;BME280;74580;47.078;15.446;2023-12-20T04:55:14;96998.38;;;22.32;30.82
84387;BME280;74580;47.078;15.446;2023-12-20T04:57:39;96998.38;;;22.32;31.15
84387;BME280;74580;47.078;15.446;2023-12-20T05:00:05;97001.47;;;22.30;30.98
84387;BME280;74580;47.078;15.446;2023-12-20T05:02:33;97004.19;;;22.30;30.99
84387;BME280;74580;47.078;15.446;2023-12-20T05:04:58;97016.63;;;22.31;31.03
84387;BME280;74580;47.078;15.446;2023-12-20T05:07:24;97020.94;;;22.32;31.07
84387;BME280;74580;47.078;15.446;2023-12-20T05:09:49;97015.06;;;22.30;31.07
84387;BME280;74580;47.078;15.446;2023-12-20T05:12:14;97013.50;;;22.29;31.10
84387;BME280;74580;47.078;15.446;2023-12-20T05:14:40;97008.06;;;22.29;31.03
84387;BME280;74580;47.078;15.446;2023-12-20T05:17:05;97006.16;;;22.30;31.08
84387;BME280;74580;47.078;15.446;2023-12-20T05:19:31;97006.91;;;22.30;31.07
84387;BME280;74580;47.078;15.446;2023-12-20T05:22:00;97002.63;;;22.29;31.14
84387;BME280;74580;47.078;15.446;2023-12-20T05:24:25;96999.91;;;22.29;31.00
84387;BME280;74580;47.078;15.446;2023-12-20T05:26:51;96999.13;;;22.29;31.09
84387;BME280;74580;47.078;15.446;2023-12-20T05:29:16;96999.91;;;22.29;31.10
84387;BME280;74580;47.078;15.446;2023-12-20T05:31:42;96998.34;;;22.28;31.16
84387;BME280;74580;47.078;15.446;2023-12-20T05:34:07;97004.56;;;22.29;31.06
84387;BME280;74580;47.078;15.446;2023-12-20T05:36:33;97007.28;;;22.29;31.22
84387;BME280;74580;47.078;15.446;2023-12-20T05:38:58;96994.84;;;22.28;31.24
84387;BME280;74580;47.078;15.446;2023-12-20T05:41:23;96996.38;;;22.29;31.09
84387;BME280;74580;47.078;15.446;2023-12-20T05:43:49;96985.50;;;22.29;31.36
84387;BME280;74580;47.078;15.446;2023-12-20T05:46:14;96982.78;;;22.29;31.22
84387;BME280;74580;47.078;15.446;2023-12-20T05:48:39;96985.50;;;22.29;31.15
84387;BME280;74580;47.078;15.446;2023-12-20T05:51:05;96994.47;;;22.29;31.15
84387;BME280;74580;47.078;15.446;2023-12-20T05:53:30;96989.38;;;22.28;31.07
84387;BME280;74580;47.078;15.446;2023-12-20T05:55:55;96996.75;;;22.27;31.36
84387;BME280;74580;47.078;15.446;2023-12-20T05:58:21;96999.47;;;22.27;30.95
84387;BME280;74580;47.078;15.446;2023-12-20T06:00:46;97003.38;;;22.26;31.11
84387;BME280;74580;47.078;15.446;2023-12-20T06:03:11;97014.69;;;22.28;31.11
84387;BME280;74580;47.078;15.446;2023-12-20T06:05:37;97005.72;;;22.28;31.13
84387;BME280;74580;47.078;15.446;2023-12-20T06:08:02;97008.81;;;22.26;30.99
84387;BME280;74580;47.078;15.446;2023-12-20T06:10:28;97012.31;;;22.27;31.10
84387;BME280;74580;47.078;15.446;2023-12-20T06:12:54;97009.59;;;22.27;30.89
84387;BME280;74580;47.078;15.446;2023-12-20T06:15:21;97001.44;;;22.27;31.26
84387;BME280;74580;47.078;15.446;2023-12-20T06:17:46;97013.09;;;22.27;31.08
84387;BME280;74580;47.078;15.446;2023-12-20T06:20:12;97012.34;;;22.30;31.02
84387;BME280;74580;47.078;15.446;2023-12-20T06:22:38;97005.38;;;22.33;31.00
84387;BME280;74580;47.078;15.446;2023-12-20T06:25:04;97005.00;;;22.34;31.25
84387;BME280;74580;47.078;15.446;2023-12-20T06:27:30;97008.16;;;22.36;31.22
84387;BME280;74580;47.078;15.446;2023-12-20T06:29:57;97006.19;;;22.37;31.27
84387;BME280;74580;47.078;15.446;2023-12-20T06:32:23;96995.75;;;22.39;31.53
84387;BME280;74580;47.078;15.446;2023-12-20T06:34:49;97002.28;;;22.34;29.82
84387;BME280;74580;47.078;15.446;2023-12-20T06:37:14;96990.09;;;21.88;28.46
84387;BME280;74580;47.078;15.446;2023-12-20T06:39:40;96995.81;;;22.13;31.02
84387;BME280;74580;47.078;15.446;2023-12-20T06:42:05;97000.97;;;22.21;29.91
84387;BME280;74580;47.078;15.446;2023-12-20T06:44:31;97005.31;;;22.26;30.04
84387;BME280;74580;47.078;15.446;2023-12-20T06:46:57;97010.78;;;22.29;29.85
84387;BME280;74580;47.078;15.446;2023-12-20T06:49:22;97007.34;;;22.32;29.95
84387;BME280;74580;47.078;15.446;2023-12-20T06:51:47;97011.25;;;22.35;30.10
84387;BME280;74580;47.078;15.446;2023-12-20T06:54:13;97023.72;;;22.39;30.24
84387;BME280;74580;47.078;15.446;2023-12-20T06:56:38;97022.22;;;22.42;30.13
84387;BME280;74580;47.078;15.446;2023-12-20T06:59:04;97019.09;;;22.43;30.43
84387;BME280;74580;47.078;15.446;2023-12-20T07:01:29;97028.13;;;22.47;30.31
84387;BME280;74580;47.078;15.446;2023-12-20T07:03:54;97032.44;;;22.48;30.42
84387;BME280;74580;47.078;15.446;2023-12-20T07:06:20;97035.53;;;22.50;30.70
84387;BME280;74580;47.078;15.446;2023-12-20T07:08:45;97036.72;;;22.53;30.54
84387;BME280;74580;47.078;15.446;2023-12-20T07:11:11;97041.00;;;22.54;30.72
84387;BME280;74580;47.078;15.446;2023-12-20T07:13:36;97041.81;;;22.54;30.47
84387;BME280;74580;47.078;15.446;2023-12-20T07:16:02;97050.41;;;22.56;31.04
84387;BME280;74580;47.078;15.446;2023-12-20T07:18:28;97041.84;;;22.58;30.73
84387;BME280;74580;47.078;15.446;2023-12-20T07:20:53;97048.88;;;22.59;30.74
84387;BME280;74580;47.078;15.446;2023-12-20T07:23:19;97053.16;;;22.60;30.74
84387;BME280;74580;47.078;15.446;2023-12-20T07:25:45;97066.75;;;22.60;30.93
84387;BME280;74580;47.078;15.446;2023-12-20T07:28:11;97064.84;;;22.60;30.92
84387;BME280;74580;47.078;15.446;2023-12-20T07:30:36;97072.22;;;22.60;31.03
84387;BME280;74580;47.078;15.446;2023-12-20T07:33:01;97078.84;;;22.62;31.18
84387;BME280;74580;47.078;15.446;2023-12-20T07:35:27;97080.00;;;22.61;31.12
84387;BME280;74580;47.078;15.446;2023-12-20T07:37:53;97087.81;;;22.63;31.04
84387;BME280;74580;47.078;15.446;2023-12-20T07:40:18;97085.09;;;22.63;30.84
84387;BME280;74580;47.078;15.446;2023-12-20T07:42:44;97091.66;;;22.62;31.00
84387;BME280;74580;47.078;15.446;2023-12-20T07:45:09;97083.94;;;22.64;31.33
84387;BME280;74580;47.078;15.446;2023-12-20T07:47:35;97092.09;;;22.64;31.28
84387;BME280;74580;47.078;15.446;2023-12-20T07:50:01;97087.00;;;22.62;31.07
84387;BME280;74580;47.078;15.446;2023-12-20T07:52:28;97092.06;;;22.60;30.62
84387;BME280;74580;47.078;15.446;2023-12-20T07:54:54;97096.72;;;22.60;30.95
84387;BME280;74580;47.078;15.446;2023-12-20T07:57:19;97110.72;;;22.62;31.13
84387;BME280;74580;47.078;15.446;2023-12-20T07:59:44;97112.69;;;22.61;31.09
84387;BME280;74580;47.078;15.446;2023-12-20T08:02:10;97114.25;;;22.62;31.08
84387;BME280;74580;47.078;15.446;2023-12-20T08:04:35;97116.59;;;22.64;31.14
84387;BME280;74580;47.078;15.446;2023-12-20T08:07:00;97113.09;;;22.63;31.17
84387;BME280;74580;47.078;15.446;2023-12-20T08:09:26;97117.41;;;22.64;31.34
84387;BME280;74580;47.078;15.446;2023-12-20T08:11:51;97111.16;;;22.64;31.44
84387;BME280;74580;47.078;15.446;2023-12-20T08:14:17;97120.88;;;22.65;31.59
84387;BME280;74580;47.078;15.446;2023-12-20T08:16:42;97116.22;;;22.65;31.26
84387;BME280;74580;47.078;15.446;2023-12-20T08:19:07;97119.72;;;22.66;31.58
84387;BME280;74580;47.078;15.446;2023-12-20T08:21:33;97110.41;;;22.67;31.18
84387;BME280;74580;47.078;15.446;2023-12-20T08:23:58;97118.59;;;22.67;31.46
84387;BME280;74580;47.078;15.446;2023-12-20T08:26:25;97124.03;;;22.67;31.36
84387;BME280;74580;47.078;15.446;2023-12-20T08:28:51;97131.78;;;22.65;31.51
84387;BME280;74580;47.078;15.446;2023-12-20T08:31:17;97118.59;;;22.67;31.49
84387;BME280;74580;47.078;15.446;2023-12-20T08:33:46;97114.28;;;22.66;31.62
84387;BME280;74580;47.078;15.446;2023-12-20T08:36:12;97124.81;;;22.67;31.62
84387;BME280;74580;47.078;15.446;2023-12-20T08:38:38;97119.72;;;22.66;31.71
84387;BME280;74580;47.078;15.446;2023-12-20T08:41:04;97122.44;;;22.66;31.76
84387;BME280;74580;47.078;15.446;2023-12-20T08:43:33;97126.31;;;22.65;31.67
84387;BME280;74580;47.078;15.446;2023-12-20T08:45:59;97127.13;;;22.65;31.77
84387;BME280;74580;47.078;15.446;2023-12-20T08:48:24;97141.72;;;22.50;29.63
84387;BME280;74580;47.078;15.446;2023-12-20T08:50:49;97135.03;;;22.18;29.38
84387;BME280;74580;47.078;15.446;2023-12-20T08:53:17;97132.97;;;22.08;30.55
84387;BME280;74580;47.078;15.446;2023-12-20T08:55:42;97143.78;;;22.31;31.12
84387;BME280;74580;47.078;15.446;2023-12-20T08:58:08;97143.06;;;22.37;30.81
84387;BME280;74580;47.078;15.446;2023-12-20T09:00:34;97145.84;;;22.41;30.86
84387;BME280;74580;47.078;15.446;2023-12-20T09:03:01;97141.22;;;22.45;30.82
84387;BME280;74580;47.078;15.446;2023-12-20T09:05:27;97152.97;;;22.49;30.74
84387;BME280;74580;47.078;15.446;2023-12-20T09:07:53;97154.16;;;22.51;30.90
84387;BME280;74580;47.078;15.446;2023-12-20T09:10:18;97149.16;;;22.53;30.94
84387;BME280;74580;47.078;15.446;2023-12-20T09:12:56;97140.25;;;22.56;30.98
84387;BME280;74580;47.078;15.446;2023-12-20T09:15:26;97132.84;;;22.57;31.05
84387;BME280;74580;47.078;15.446;2023-12-20T09:17:51;97125.88;;;22.59;30.86
84387;BME280;74580;47.078;15.446;2023-12-20T09:20:17;97112.69;;;22.61;30.74
84387;BME280;74580;47.078;15.446;2023-12-20T09:22:43;97118.91;;;22.62;30.97
84387;BME280;74580;47.078;15.446;2023-12-20T09:25:10;97125.94;;;22.63;30.99
84387;BME280;74580;47.078;15.446;2023-12-20T09:27:36;97134.09;;;22.63;31.06
84387;BME280;74580;47.078;15.446;2023-12-20T09:30:02;97134.50;;;22.65;31.22
84387;BME280;74580;47.078;15.446;2023-12-20T09:32:28;97119.72;;;22.66;31.11
84387;BME280;74580;47.078;15.446;2023-12-20T09:34:54;97121.31;;;22.67;31.41
84387;BME280;74580;47.078;15.446;2023-12-20T09:37:20;97132.97;;;22.67;31.16
84387;BME280;74580;47.078;15.446;2023-12-20T09:39:45;97141.56;;;22.69;31.22
84387;BME280;74580;47.078;15.446;2023-12-20T09:42:12;97147.00;;;22.69;31.41
84387;BME280;74580;47.078;15.446;2023-12-20T09:44:42;97137.69;;;22.70;31.22
84387;BME280;74580;47.078;15.446;2023-12-20T09:47:09;97137.69;;;22.70;31.32
84387;BME280;74580;47.078;15.446;2023-12-20T09:49:36;97133.03;;;22.71;31.40
84387;BME280;74580;47.078;15.446;2023-12-20T09:52:04;97122.91;;;22.71;31.41
84387;BME280;74580;47.078;15.446;2023-12-20T09:54:32;97101.13;;;22.71;31.45
84387;BME280;74580;47.078;15.446;2023-12-20T09:56:58;97093.75;;;22.72;31.72
84387;BME280;74580;47.078;15.446;2023-12-20T09:59:23;97099.19;;;22.72;31.52
84387;BME280;74580;47.078;15.446;2023-12-20T10:01:49;97114.38;;;22.73;31.89
84387;BME280;74580;47.078;15.446;2023-12-20T10:04:15;97093.75;;;22.72;31.42
84387;BME280;74580;47.078;15.446;2023-12-20T10:06:42;97096.09;;;22.73;31.49
84387;BME280;74580;47.078;15.446;2023-12-20T10:09:08;97098.81;;;22.73;31.59
84387;BME280;74580;47.078;15.446;2023-12-20T10:11:36;97094.34;;;22.58;29.80
84387;BME280;74580;47.078;15.446;2023-12-20T10:14:02;97099.19;;;22.13;29.34
84387;BME280;74580;47.078;15.446;2023-12-20T10:16:28;97111.13;;;22.31;30.71
84387;BME280;74580;47.078;15.446;2023-12-20T10:18:55;97095.31;;;22.43;30.35
84387;BME280;74580;47.078;15.446;2023-12-20T10:21:21;97100.56;;;22.26;29.25
84387;BME280;74580;47.078;15.446;2023-12-20T10:23:47;97093.63;;;22.32;30.07
84387;BME280;74580;47.078;15.446;2023-12-20T10:26:33;97087.91;;;22.40;29.89
84387;BME280;74580;47.078;15.446;2023-12-20T10:29:01;97090.66;;;22.44;29.73
84387;BME280;74580;47.078;15.446;2023-12-20T10:31:33;97078.72;;;22.48;30.09
84387;BME280;74580;47.078;15.446;2023-12-20T10:34:01;97077.56;;;22.53;29.99
84387;BME280;74580;47.078;15.446;2023-12-20T10:36:28;97088.09;;;22.54;30.14
84387;BME280;74580;47.078;15.446;2023-12-20T10:38:55;97086.56;;;22.57;29.93
84387;BME280;74580;47.078;15.446;2023-12-20T10:41:30;97088.91;;;22.58;30.08
84387;BME280;74580;47.078;15.446;2023-12-20T10:43:58;97086.22;;;22.62;30.02
84387;BME280;74580;47.078;15.446;2023-12-20T10:46:27;97080.41;;;22.63;30.08
84387;BME280;74580;47.078;15.446;2023-12-20T10:48:55;97077.31;;;22.65;30.33
84387;BME280;74580;47.078;15.446;2023-12-20T10:51:21;97079.66;;;22.66;30.27
84387;BME280;74580;47.078;15.446;2023-12-20T10:53:47;97080.47;;;22.67;30.28
84387;BME280;74580;47.078;15.446;2023-12-20T10:56:19;97073.06;;;22.67;30.35
84387;BME280;74580;47.078;15.446;2023-12-20T10:58:48;97075.41;;;22.69;30.59
84387;BME280;74580;47.078;15.446;2023-12-20T11:01:15;97075.41;;;22.69;30.27
84387;BME280;74580;47.078;15.446;2023-12-20T11:03:50;97069.97;;;22.69;30.58
84387;BME280;74580;47.078;15.446;2023-12-20T11:06:19;97059.06;;;22.69;31.16
84387;BME280;74580;47.078;15.446;2023-12-20T11:09:04;97066.88;;;22.70;30.68
84387;BME280;74580;47.078;15.446;2023-12-20T11:14:17;97064.94;;;22.71;30.67
84387;BME280;74580;47.078;15.446;2023-12-20T11:16:44;97060.63;;;22.70;30.69
84387;BME280;74580;47.078;15.446;2023-12-20T11:19:11;97059.50;;;22.71;30.99
84387;BME280;74580;47.078;15.446;2023-12-20T11:21:39;97064.53;;;22.69;30.94
84387;BME280;74580;47.078;15.446;2023-12-20T11:24:05;97062.16;;;22.67;30.57
84387;BME280;74580;47.078;15.446;2023-12-20T11:26:30;97057.88;;;22.66;30.38
84387;BME280;74580;47.078;15.446;2023-12-20T11:32:03;97052.44;;;22.66;30.65
84387;BME280;74580;47.078;15.446;2023-12-20T11:34:31;97052.44;;;22.66;30.67
84387;BME280;74580;47.078;15.446;2023-12-20T11:36:59;97055.16;;;22.66;30.78
84387;BME280;74580;47.078;15.446;2023-12-20T11:39:26;97057.09;;;22.66;30.76
84387;BME280;74580;47.078;15.446;2023-12-20T11:41:54;97050.09;;;22.65;30.85
84387;BME280;74580;47.078;15.446;2023-12-20T11:44:20;97042.34;;;22.67;30.65
84387;BME280;74580;47.078;15.446;2023-12-20T11:46:46;97041.91;;;22.65;30.70
84387;BME280;74580;47.078;15.446;2023-12-20T11:49:11;97041.56;;;22.66;30.88
84387;BME280;74580;47.078;15.446;2023-12-20T11:51:40;97033.75;;;22.65;30.76
84387;BME280;74580;47.078;15.446;2023-12-20T11:54:06;97045.06;;;22.67;30.67
84387;BME280;74580;47.078;15.446;2023-12-20T11:56:32;97035.31;;;22.66;30.78
84387;BME280;74580;47.078;15.446;2023-12-20T11:58:57;97033.38;;;22.66;30.67
84387;BME280;74580;47.078;15.446;2023-12-20T12:01:24;97028.72;;;22.67;31.09
84387;BME280;74580;47.078;15.446;2023-12-20T12:04:05;97023.28;;;22.67;30.99
84387;BME280;74580;47.078;15.446;2023-12-20T12:06:30;97021.31;;;22.67;30.75
84387;BME280;74580;47.078;15.446;2023-12-20T12:08:56;97024.03;;;22.67;30.75
84387;BME280;74580;47.078;15.446;2023-12-20T12:11:22;97018.59;;;22.67;30.68
84387;BME280;74580;47.078;15.446;2023-12-20T12:13:48;97020.56;;;22.67;30.70
84387;BME280;74580;47.078;15.446;2023-12-20T12:16:19;97012.38;;;22.67;30.97
84387;BME280;74580;47.078;15.446;2023-12-20T12:18:45;97004.22;;;22.67;30.86
84387;BME280;74580;47.078;15.446;2023-12-20T12:21:11;97002.63;;;22.66;30.82
84387;BME280;74580;47.078;15.446;2023-12-20T12:23:43;97007.72;;;22.67;30.80
84387;BME280;74580;47.078;15.446;2023-12-20T12:26:09;97007.72;;;22.67;31.16
84387;BME280;74580;47.078;15.446;2023-12-20T12:28:34;97001.50;;;22.67;30.94
84387;BME280;74580;47.078;15.446;2023-12-20T12:31:00;97001.50;;;22.67;30.70
84387;BME280;74580;47.078;15.446;2023-12-20T12:33:26;96992.53;;;22.66;30.72
84387;BME280;74580;47.078;15.446;2023-12-20T12:35:51;96996.44;;;22.65;30.86
84387;BME280;74580;47.078;15.446;2023-12-20T12:38:20;97016.25;;;22.66;30.94
84387;BME280;74580;47.078;15.446;2023-12-20T12:40:46;97001.88;;;22.65;30.78
84387;BME280;74580;47.078;15.446;2023-12-20T12:43:11;96990.59;;;22.67;30.96
84387;BME280;74580;47.078;15.446;2023-12-20T12:45:37;96990.59;;;22.67;31.12
84387;BME280;74580;47.078;15.446;2023-12-20T12:48:03;96989.44;;;22.68;30.78
84387;BME280;74580;47.078;15.446;2023-12-20T12:50:30;96998.41;;;22.68;30.93